sensor_id;sensor_type;location;lat;lon;timestamp;temperature;humidity
20996;DHT22;10656;52.200;21.052;2023-08-06T00:03:09;19.00;99.90
20996;DHT22;10656;52.200;21.052;2023-08-06T00:43:47;19.00;99.90
20996;DHT22;10656;52.200;21.052;2023-08-06T01:08:41;19.00;99.90
20996;DHT22;10656;52.200;21.052;2023-08-06T01:29:17;18.80;99.90
20996;DHT22;10656;52.200;21.052;2023-08-06T01:54:26;18.70;99.90
20996;DHT22;10656;52.200;21.052;2023-08-06T02:55:47;18.80;99.90
20996;DHT22;10656;52.200;21.052;2023-08-06T03:00:05;18.90;99.90
20996;DHT22;10656;52.200;21.052;2023-08-06T03:20:55;19.00;99.90
20996;DHT22;10656;52.200;21.052;2023-08-06T03:46:20;19.20;99.90
20996;DHT22;10656;52.200;21.052;2023-08-06T04:16:28;19.30;99.90
20996;DHT22;10656;52.200;21.052;2023-08-06T04:36:58;19.60;99.90
20996;DHT22;10656;52.200;21.052;2023-08-06T05:17:38;20.70;99.90
20996;DHT22;10656;52.200;21.052;2023-08-06T05:42:24;21.40;99.90
20996;DHT22;10656;52.200;21.052;2023-08-06T06:02:41;22.00;99.90
20996;DHT22;10656;52.200;21.052;2023-08-06T06:33:50;23.20;99.90
20996;DHT22;10656;52.200;21.052;2023-08-06T06:58:57;23.90;99.90
20996;DHT22;10656;52.200;21.052;2023-08-06T07:29:25;24.60;99.90
20996;DHT22;10656;52.200;21.052;2023-08-06T07:54:45;25.80;99.90
20996;DHT22;10656;52.200;21.052;2023-08-06T08:20:21;27.10;92.10
20996;DHT22;10656;52.200;21.052;2023-08-06T08:24:35;26.80;93.70
20996;DHT22;10656;52.200;21.052;2023-08-06T08:45:26;27.70;92.10
20996;DHT22;10656;52.200;21.052;2023-08-06T09:10:54;28.00;87.50
20996;DHT22;10656;52.200;21.052;2023-08-06T09:36:23;28.40;87.70
20996;DHT22;10656;52.200;21.052;2023-08-06T10:16:42;28.40;83.70
20996;DHT22;10656;52.200;21.052;2023-08-06T10:42:20;28.90;79.80
20996;DHT22;10656;52.200;21.052;2023-08-06T11:12:28;29.80;70.50
20996;DHT22;10656;52.200;21.052;2023-08-06T11:48:14;29.90;66.30
20996;DHT22;10656;52.200;21.052;2023-08-06T12:13:21;29.80;63.50
20996;DHT22;10656;52.200;21.052;2023-08-06T12:54:06;28.30;74.40
20996;DHT22;10656;52.200;21.052;2023-08-06T13:19:19;27.00;99.90
20996;DHT22;10656;52.200;21.052;2023-08-06T13:54:57;29.10;83.20
20996;DHT22;10656;52.200;21.052;2023-08-06T14:20:24;30.40;69.40
20996;DHT22;10656;52.200;21.052;2023-08-06T14:50:32;31.60;63.00
20996;DHT22;10656;52.200;21.052;2023-08-06T15:10:32;29.70;64.50
20996;DHT22;10656;52.200;21.052;2023-08-06T15:36:23;29.20;77.30
20996;DHT22;10656;52.200;21.052;2023-08-06T16:01:33;27.20;85.10
20996;DHT22;10656;52.200;21.052;2023-08-06T16:26:54;26.00;87.20
20996;DHT22;10656;52.200;21.052;2023-08-06T16:52:35;25.50;90.20
20996;DHT22;10656;52.200;21.052;2023-08-06T16:56:53;25.40;90.80
20996;DHT22;10656;52.200;21.052;2023-08-06T17:17:37;24.90;92.20
20996;DHT22;10656;52.200;21.052;2023-08-06T17:48:04;22.90;99.90
20996;DHT22;10656;52.200;21.052;2023-08-06T18:48:04;20.00;99.90
20996;DHT22;10656;52.200;21.052;2023-08-06T19:34:03;18.60;99.90
20996;DHT22;10656;52.200;21.052;2023-08-06T20:29:57;18.20;99.90
20996;DHT22;10656;52.200;21.052;2023-08-06T21:00:21;18.10;99.90
20996;DHT22;10656;52.200;21.052;2023-08-06T21:35:49;17.80;99.90
20996;DHT22;10656;52.200;21.052;2023-08-06T21:56:16;17.70;99.90
20996;DHT22;10656;52.200;21.052;2023-08-06T22:16:03;17.30;99.90
20996;DHT22;10656;52.200;21.052;2023-08-06T22:46:53;16.80;99.90
20996;DHT22;10656;52.200;21.052;2023-08-06T23:12:21;16.50;99.90
20996;DHT22;10656;52.200;21.052;2023-08-06T23:37:13;16.20;99.90
20996;DHT22;10656;52.200;21.052;2023-08-06T23:44:52;16.10;99.90
20996;DHT22;10656;52.200;21.052;2023-08-06T23:57:55;15.60;99.90
